createdAt,value
2023-03-06T00:01:01.545Z,25.70
2023-03-06T00:03:28.830Z,17.67
2023-03-06T00:05:59.400Z,14.93
2023-03-06T00:08:27.775Z,8.73
2023-03-06T00:10:56.402Z,7.75
2023-03-06T00:13:23.924Z,6.53
2023-03-06T00:15:51.417Z,25.00
2023-03-06T00:18:19.001Z,9.40
2023-03-06T00:20:46.416Z,10.70
2023-03-06T00:23:13.887Z,44.80
2023-03-06T00:25:45.375Z,28.27
2023-03-06T00:28:15.198Z,16.57
2023-03-06T00:30:43.025Z,15.63
2023-03-06T00:33:10.954Z,11.17
2023-03-06T00:35:41.413Z,8.27
2023-03-06T00:38:10.706Z,9.20
2023-03-06T00:40:38.098Z,10.97
2023-03-06T00:43:05.439Z,8.73
2023-03-06T00:45:33.367Z,7.17
2023-03-06T00:48:00.786Z,7.17
2023-03-06T00:50:28.259Z,8.73
2023-03-06T00:52:55.988Z,8.40
2023-03-06T00:55:23.424Z,7.37
2023-03-06T00:57:50.933Z,6.47
2023-03-06T01:00:18.646Z,8.23
2023-03-06T01:02:46.094Z,8.40
2023-03-06T01:05:14.061Z,7.53
2023-03-06T01:07:41.339Z,10.30
2023-03-06T01:10:09.330Z,8.80
2023-03-06T01:12:36.847Z,9.77
2023-03-06T01:15:05.125Z,9.80
2023-03-06T01:17:32.517Z,11.57
2023-03-06T01:19:59.930Z,5.63
2023-03-06T01:22:27.288Z,6.63
2023-03-06T01:24:54.597Z,7.33
2023-03-06T01:27:21.852Z,11.23
2023-03-06T01:29:49.442Z,12.60
2023-03-06T01:32:16.649Z,9.47
2023-03-06T01:34:44.210Z,9.60
2023-03-06T01:37:11.547Z,6.90
2023-03-06T01:39:38.892Z,23.93
2023-03-06T01:42:06.498Z,10.53
2023-03-06T01:44:34.213Z,16.97
2023-03-06T01:47:02.803Z,9.87
2023-03-06T01:49:35.809Z,10.80
2023-03-06T01:52:03.147Z,10.17
2023-03-06T01:54:36.251Z,38.10
2023-03-06T01:57:15.321Z,11.83
2023-03-06T01:59:43.369Z,11.57
2023-03-06T02:02:11.875Z,9.53
2023-03-06T02:04:40.593Z,7.10
2023-03-06T02:07:08.200Z,9.27
2023-03-06T02:09:36.374Z,7.30
2023-03-06T02:12:11.421Z,10.80
2023-03-06T02:14:39.494Z,21.47
2023-03-06T02:17:07.622Z,7.50
2023-03-06T02:20:07.354Z,8.17
2023-03-06T02:23:11.786Z,28.50
2023-03-06T02:25:43.523Z,7.87
2023-03-06T02:28:13.200Z,13.43
2023-03-06T02:30:40.527Z,12.97
2023-03-06T02:33:07.961Z,14.53
2023-03-06T02:35:36.340Z,8.53
2023-03-06T02:38:08.341Z,10.33
2023-03-06T02:40:35.833Z,10.70
2023-03-06T02:43:03.035Z,9.43
2023-03-06T02:45:47.302Z,8.07
2023-03-06T02:48:15.000Z,12.10
2023-03-06T02:50:42.636Z,10.17
2023-03-06T02:53:10.334Z,12.77
2023-03-06T02:55:37.852Z,14.23
2023-03-06T02:58:05.620Z,9.47
2023-03-06T03:00:33.417Z,11.30
2023-03-06T03:03:00.985Z,10.37
2023-03-06T03:05:28.399Z,19.70
2023-03-06T03:07:55.855Z,19.23
2023-03-06T03:10:23.300Z,9.27
2023-03-06T03:12:50.985Z,37.33
2023-03-06T03:15:18.467Z,10.53
2023-03-06T03:17:45.971Z,20.37
2023-03-06T03:20:15.204Z,35.33
2023-03-06T03:22:42.712Z,14.53
2023-03-06T03:25:10.434Z,13.00
2023-03-06T03:27:37.875Z,10.40
2023-03-06T03:30:06.420Z,15.70
2023-03-06T03:32:33.915Z,12.10
2023-03-06T03:35:01.504Z,12.23
2023-03-06T03:37:28.892Z,14.10
2023-03-06T03:39:57.522Z,16.17
2023-03-06T03:42:24.957Z,51.93
2023-03-06T03:44:52.400Z,19.77
2023-03-06T03:47:19.625Z,16.13
2023-03-06T03:49:47.007Z,17.20
2023-03-06T03:52:14.479Z,23.80
2023-03-06T03:54:42.111Z,18.50
2023-03-06T03:57:09.684Z,21.53
2023-03-06T03:59:37.176Z,15.23
2023-03-06T04:02:07.659Z,11.50
2023-03-06T04:04:35.108Z,11.23
2023-03-06T04:07:02.560Z,17.93
2023-03-06T04:09:29.871Z,17.23
2023-03-06T04:11:57.658Z,16.50
2023-03-06T04:14:25.172Z,17.67
2023-03-06T04:16:52.584Z,28.27
2023-03-06T04:19:19.900Z,18.37
2023-03-06T04:21:47.515Z,18.70
2023-03-06T04:24:14.722Z,23.37
2023-03-06T04:26:42.195Z,14.43
2023-03-06T04:29:09.619Z,21.47
2023-03-06T04:31:36.952Z,13.77
2023-03-06T04:34:04.966Z,19.93
2023-03-06T04:36:33.470Z,25.97
2023-03-06T04:39:00.971Z,22.03
2023-03-06T04:41:28.321Z,13.93
2023-03-06T04:43:55.901Z,15.83
2023-03-06T04:46:23.328Z,17.70
2023-03-06T04:48:50.499Z,27.77
2023-03-06T04:51:18.021Z,48.20
2023-03-06T04:53:45.627Z,29.83
2023-03-06T04:56:13.039Z,13.80
2023-03-06T04:58:40.517Z,26.90
2023-03-06T05:01:07.895Z,17.80
2023-03-06T05:03:35.141Z,28.13
2023-03-06T05:06:02.679Z,17.83
2023-03-06T05:08:30.063Z,16.53
2023-03-06T05:10:59.123Z,14.93
2023-03-06T05:13:27.016Z,17.93
2023-03-06T05:15:54.272Z,25.90
2023-03-06T05:18:21.643Z,27.47
2023-03-06T05:20:48.882Z,17.43
2023-03-06T05:23:16.439Z,21.60
2023-03-06T05:25:43.703Z,25.50
2023-03-06T05:28:11.010Z,34.43
2023-03-06T05:30:38.375Z,23.20
2023-03-06T05:33:05.728Z,20.03
2023-03-06T05:35:33.864Z,14.10
2023-03-06T05:38:01.369Z,19.50
2023-03-06T05:40:28.894Z,19.17
2023-03-06T05:42:56.261Z,23.67
2023-03-06T05:45:25.164Z,16.30
2023-03-06T05:47:52.509Z,13.10
2023-03-06T05:50:19.948Z,38.80
2023-03-06T05:52:47.438Z,29.40
2023-03-06T05:55:15.815Z,20.10
2023-03-06T05:57:43.060Z,30.53
2023-03-06T06:00:11.182Z,14.67
2023-03-06T06:02:38.708Z,19.47
2023-03-06T06:05:06.600Z,22.60
2023-03-06T06:07:34.150Z,22.50
2023-03-06T06:10:03.610Z,15.20
2023-03-06T06:12:31.413Z,23.40
2023-03-06T06:14:59.079Z,16.50
2023-03-06T06:17:26.464Z,20.27
2023-03-06T06:19:53.936Z,19.67
2023-03-06T06:22:21.462Z,42.00
2023-03-06T06:24:48.825Z,21.50
2023-03-06T06:27:16.114Z,14.30
2023-03-06T06:29:43.487Z,14.27
2023-03-06T06:32:10.616Z,17.80
2023-03-06T06:34:37.936Z,12.63
2023-03-06T06:37:05.705Z,28.50
2023-03-06T06:39:33.040Z,17.20
2023-03-06T06:42:26.586Z,21.57
2023-03-06T06:44:49.916Z,15.10
2023-03-06T06:47:23.007Z,15.50
2023-03-06T06:49:53.154Z,12.87
2023-03-06T06:52:20.746Z,18.17
2023-03-06T06:54:48.276Z,34.93
2023-03-06T06:57:15.622Z,22.03
2023-03-06T06:59:43.162Z,34.37
2023-03-06T07:02:14.465Z,23.10
2023-03-06T07:04:56.236Z,23.97
2023-03-06T07:07:29.230Z,34.97
2023-03-06T07:09:56.803Z,18.97
2023-03-06T07:12:24.210Z,28.03
2023-03-06T07:14:51.518Z,30.00
2023-03-06T07:17:18.906Z,51.53
2023-03-06T07:19:46.308Z,25.23
2023-03-06T07:22:14.125Z,18.93
2023-03-06T07:24:41.405Z,50.93
2023-03-06T07:27:08.543Z,32.10
2023-03-06T07:29:36.057Z,31.73
2023-03-06T07:32:04.345Z,26.73
2023-03-06T07:34:31.943Z,26.70
2023-03-06T07:36:59.304Z,39.93
2023-03-06T07:39:28.463Z,26.50
2023-03-06T07:41:56.081Z,26.73
2023-03-06T07:44:23.403Z,26.37
2023-03-06T07:46:50.637Z,21.83
2023-03-06T07:49:18.244Z,45.47
2023-03-06T07:51:45.875Z,37.73
2023-03-06T07:54:13.260Z,48.47
2023-03-06T07:56:40.600Z,35.10
2023-03-06T07:59:08.070Z,39.07
2023-03-06T08:01:36.559Z,28.50
2023-03-06T08:04:04.119Z,25.27
2023-03-06T08:06:31.594Z,34.10
2023-03-06T08:08:58.903Z,30.50
2023-03-06T08:11:28.041Z,26.87
2023-03-06T08:13:56.118Z,34.17
2023-03-06T08:16:25.340Z,36.13
2023-03-06T08:18:52.755Z,33.77
2023-03-06T08:21:22.316Z,33.67
2023-03-06T08:23:49.869Z,25.07
2023-03-06T08:26:22.217Z,49.83
2023-03-06T08:28:50.730Z,22.67
2023-03-06T08:31:35.774Z,48.37
2023-03-06T08:34:05.120Z,27.17
2023-03-06T08:36:32.604Z,23.73
2023-03-06T08:39:00.057Z,23.57
2023-03-06T08:41:27.630Z,29.60
2023-03-06T08:43:54.923Z,22.93
2023-03-06T08:46:23.791Z,24.10
2023-03-06T08:48:51.104Z,28.27
2023-03-06T08:51:18.750Z,34.50
2023-03-06T08:53:46.246Z,29.70
2023-03-06T08:56:27.683Z,29.70
2023-03-06T08:58:55.415Z,28.20
2023-03-06T09:01:24.966Z,28.37
2023-03-06T09:03:56.617Z,25.20
2023-03-06T09:06:24.102Z,25.77
2023-03-06T09:08:52.768Z,29.00
2023-03-06T09:11:20.282Z,31.40
2023-03-06T09:13:47.502Z,35.03
2023-03-06T09:16:14.907Z,25.27
2023-03-06T09:18:42.130Z,20.60
2023-03-06T09:21:09.773Z,33.57
2023-03-06T09:23:37.570Z,35.73
2023-03-06T09:26:05.142Z,36.67
2023-03-06T09:28:32.776Z,21.03
2023-03-06T09:31:00.178Z,27.10
2023-03-06T09:33:28.901Z,43.73
2023-03-06T09:35:57.410Z,21.20
2023-03-06T09:38:26.711Z,25.63
2023-03-06T09:41:03.208Z,34.47
2023-03-06T09:43:43.872Z,18.23
2023-03-06T09:46:23.925Z,33.50
2023-03-06T09:49:00.076Z,24.90
2023-03-06T09:51:56.979Z,22.77
2023-03-06T09:54:41.670Z,25.00
2023-03-06T09:57:33.414Z,25.80
2023-03-06T10:00:04.886Z,22.93
2023-03-06T10:02:46.885Z,24.60
2023-03-06T10:05:49.093Z,24.00
2023-03-06T10:08:27.702Z,28.60
2023-03-06T10:11:02.731Z,24.37
2023-03-06T10:13:47.260Z,32.63
2023-03-06T10:16:30.248Z,24.77
2023-03-06T10:19:04.453Z,26.50
2023-03-06T10:21:52.059Z,41.47
2023-03-06T10:24:22.540Z,23.87
2023-03-06T10:26:59.833Z,25.20
2023-03-06T10:30:02.137Z,35.23
2023-03-06T10:33:01.024Z,30.20
2023-03-06T10:35:48.727Z,25.23
2023-03-06T10:38:27.365Z,32.50
2023-03-06T10:41:09.331Z,31.70
2023-03-06T10:43:37.295Z,25.87
2023-03-06T10:46:05.569Z,24.40
2023-03-06T10:48:36.285Z,28.70
2023-03-06T10:51:20.991Z,22.10
2023-03-06T10:53:56.331Z,25.20
2023-03-06T10:56:40.708Z,27.37
2023-03-06T10:59:14.109Z,32.03
2023-03-06T11:01:42.880Z,24.17
2023-03-06T11:04:33.004Z,32.03
2023-03-06T11:07:22.902Z,31.97
2023-03-06T11:09:59.395Z,25.77
2023-03-06T11:12:34.376Z,27.40
2023-03-06T11:15:10.550Z,33.17
2023-03-06T11:17:48.325Z,31.33
2023-03-06T11:20:26.298Z,20.40
2023-03-06T11:23:12.607Z,29.47
2023-03-06T11:25:43.050Z,24.20
2023-03-06T11:28:23.999Z,24.00
2023-03-06T11:31:11.775Z,22.87
2023-03-06T11:34:10.036Z,26.30
2023-03-06T11:36:55.836Z,25.30
2023-03-06T11:39:28.632Z,24.50
2023-03-06T11:42:04.261Z,27.00
2023-03-06T11:44:55.946Z,34.37
2023-03-06T11:47:29.256Z,24.40
2023-03-06T11:50:22.124Z,21.93
2023-03-06T11:52:59.674Z,17.87
2023-03-06T11:55:45.282Z,26.50
2023-03-06T11:58:37.419Z,38.47
2023-03-06T12:01:20.745Z,24.10
2023-03-06T12:03:54.295Z,26.17
2023-03-06T12:06:33.074Z,21.23
2023-03-06T12:09:39.159Z,20.80
2023-03-06T12:12:45.142Z,19.17
2023-03-06T12:15:18.666Z,32.13
2023-03-06T12:18:13.172Z,17.33
2023-03-06T12:20:50.778Z,25.37
2023-03-06T12:23:53.109Z,19.70
2023-03-06T12:26:34.589Z,17.07
2023-03-06T12:29:10.953Z,21.80
2023-03-06T12:31:50.633Z,20.67
2023-03-06T12:34:24.472Z,17.53
2023-03-06T12:37:00.743Z,17.40
2023-03-06T12:39:52.698Z,18.70
2023-03-06T12:42:31.304Z,14.73
2023-03-06T12:45:32.557Z,18.60
2023-03-06T12:48:00.507Z,23.63
2023-03-06T12:50:32.746Z,22.60
2023-03-06T12:53:07.650Z,19.37
2023-03-06T12:55:48.400Z,23.17
2023-03-06T12:58:31.124Z,20.93
2023-03-06T13:01:20.385Z,23.50
2023-03-06T13:04:05.981Z,16.87
2023-03-06T13:06:50.736Z,21.17
2023-03-06T13:09:25.836Z,18.67
2023-03-06T13:12:19.672Z,21.23
2023-03-06T13:14:54.104Z,19.30
2023-03-06T13:17:24.938Z,18.53
2023-03-06T13:20:41.359Z,20.50
2023-03-06T13:23:33.551Z,23.30
2023-03-06T13:26:05.139Z,20.17
2023-03-06T13:28:48.059Z,17.40
2023-03-06T13:31:34.379Z,28.97
2023-03-06T13:34:43.869Z,22.57
2023-03-06T13:37:20.561Z,21.37
2023-03-06T13:39:59.737Z,20.47
2023-03-06T13:42:29.236Z,21.07
2023-03-06T13:45:25.282Z,23.57
2023-03-06T13:48:33.714Z,26.57
2023-03-06T13:50:44.834Z,27.03
2023-03-06T13:53:42.824Z,19.50
2023-03-06T13:56:42.220Z,24.47
2023-03-06T13:59:24.072Z,25.33
2023-03-06T14:02:24.986Z,27.70
2023-03-06T14:04:53.756Z,22.33
2023-03-06T14:07:30.661Z,50.90
2023-03-06T14:10:10.450Z,83.83
2023-03-06T14:12:41.262Z,24.50
2023-03-06T14:15:20.914Z,47.40
2023-03-06T14:17:54.170Z,24.80
2023-03-06T14:20:21.835Z,22.33
2023-03-06T14:22:49.061Z,33.93
2023-03-06T14:25:27.355Z,19.67
2023-03-06T14:27:56.456Z,26.77
2023-03-06T14:30:27.745Z,37.93
2023-03-06T14:32:55.616Z,26.07
2023-03-06T14:35:30.678Z,30.17
2023-03-06T14:38:06.800Z,38.37
2023-03-06T14:40:47.055Z,29.93
2023-03-06T14:43:22.817Z,25.37
2023-03-06T14:45:58.041Z,24.60
2023-03-06T14:48:27.288Z,22.13
2023-03-06T14:50:57.777Z,22.83
2023-03-06T14:53:29.693Z,20.87
2023-03-06T14:56:00.192Z,31.63
2023-03-06T14:58:32.246Z,26.50
2023-03-06T15:01:02.856Z,27.97
2023-03-06T15:03:35.513Z,24.40
2023-03-06T15:06:03.944Z,28.27
2023-03-06T15:08:32.615Z,22.00
2023-03-06T15:11:02.250Z,27.00
2023-03-06T15:13:30.982Z,28.37
2023-03-06T15:16:30.118Z,23.00
2023-03-06T15:19:04.680Z,26.83
2023-03-06T15:21:38.077Z,28.30
2023-03-06T15:24:35.281Z,29.83
2023-03-06T15:27:06.791Z,25.03
2023-03-06T15:29:34.258Z,24.53
2023-03-06T15:32:31.863Z,23.93
2023-03-06T15:35:30.716Z,23.27
2023-03-06T15:37:58.293Z,26.47
2023-03-06T15:40:26.896Z,23.70
2023-03-06T15:42:54.228Z,17.10
2023-03-06T15:45:23.315Z,22.83
2023-03-06T15:47:51.786Z,18.87
2023-03-06T15:50:26.788Z,18.70
2023-03-06T15:52:54.136Z,18.70
2023-03-06T15:55:23.145Z,24.93
2023-03-06T15:57:54.484Z,17.20
2023-03-06T16:00:27.990Z,21.03
2023-03-06T16:02:56.542Z,18.50
2023-03-06T16:05:23.985Z,21.83
2023-03-06T16:07:51.343Z,18.23
2023-03-06T16:10:23.145Z,18.63
2023-03-06T16:12:53.033Z,19.27
2023-03-06T16:15:22.676Z,21.30
2023-03-06T16:17:50.141Z,29.00
2023-03-06T16:20:19.097Z,18.63
2023-03-06T16:22:47.487Z,15.53
2023-03-06T16:25:16.095Z,19.57
2023-03-06T16:27:46.456Z,20.60
2023-03-06T16:30:20.058Z,21.20
2023-03-06T16:32:47.428Z,20.13
2023-03-06T16:35:15.070Z,18.30
2023-03-06T16:37:42.938Z,19.37
2023-03-06T16:40:20.423Z,18.83
2023-03-06T16:42:48.104Z,20.57
2023-03-06T16:45:15.652Z,17.77
2023-03-06T16:47:43.700Z,21.20
2023-03-06T16:50:37.198Z,19.93
2023-03-06T16:53:04.592Z,16.27
2023-03-06T16:55:31.849Z,22.47
2023-03-06T16:57:59.423Z,22.50
2023-03-06T17:00:31.139Z,18.17
2023-03-06T17:02:58.564Z,17.87
2023-03-06T17:05:25.824Z,15.30
2023-03-06T17:07:53.213Z,16.87
2023-03-06T17:10:23.063Z,18.00
2023-03-06T17:12:50.505Z,15.47
2023-03-06T17:15:17.996Z,15.60
2023-03-06T17:17:45.548Z,15.87
2023-03-06T17:20:13.835Z,19.43
2023-03-06T17:22:41.893Z,24.53
2023-03-06T17:25:09.831Z,18.57
2023-03-06T17:27:37.449Z,26.00
2023-03-06T17:30:06.157Z,21.90
2023-03-06T17:32:33.646Z,35.10
2023-03-06T17:35:01.020Z,23.40
2023-03-06T17:37:28.242Z,24.10
2023-03-06T17:39:55.663Z,78.63
2023-03-06T17:42:22.932Z,44.50
2023-03-06T17:44:51.139Z,29.17
2023-03-06T17:47:19.809Z,27.90
2023-03-06T17:49:47.228Z,39.50
2023-03-06T17:52:14.738Z,27.10
2023-03-06T17:54:42.241Z,33.57
2023-03-06T17:57:09.476Z,31.50
2023-03-06T17:59:36.962Z,25.93
2023-03-06T18:02:06.576Z,31.73
2023-03-06T18:04:34.389Z,25.13
2023-03-06T18:07:01.813Z,28.13
2023-03-06T18:09:29.518Z,35.60
2023-03-06T18:11:57.136Z,31.80
2023-03-06T18:14:24.793Z,33.37
2023-03-06T18:16:52.368Z,29.20
2023-03-06T18:19:19.624Z,26.60
2023-03-06T18:21:47.638Z,30.10
2023-03-06T18:24:15.092Z,25.47
2023-03-06T18:26:46.099Z,27.33
2023-03-06T18:29:13.441Z,34.07
2023-03-06T18:31:42.286Z,27.23
2023-03-06T18:34:11.995Z,30.63
2023-03-06T18:36:39.282Z,27.30
2023-03-06T18:39:08.744Z,26.27
2023-03-06T18:41:36.456Z,59.53
2023-03-06T18:44:03.976Z,43.57
2023-03-06T18:46:32.763Z,32.57
2023-03-06T18:49:00.211Z,25.33
2023-03-06T18:51:27.684Z,23.10
2023-03-06T18:54:00.369Z,24.77
2023-03-06T18:56:27.811Z,29.67
2023-03-06T18:58:55.159Z,32.67
2023-03-06T19:01:23.009Z,32.73
2023-03-06T19:03:50.811Z,26.93
2023-03-06T19:06:18.467Z,23.40
2023-03-06T19:08:45.925Z,26.83
2023-03-06T19:11:14.663Z,22.67
2023-03-06T19:13:42.121Z,25.80
2023-03-06T19:16:09.883Z,20.97
2023-03-06T19:18:38.874Z,49.17
2023-03-06T19:21:14.641Z,48.03
2023-03-06T19:23:42.307Z,98.03
2023-03-06T19:26:09.803Z,64.33
2023-03-06T19:28:38.066Z,69.43
2023-03-06T19:31:25.819Z,64.07
2023-03-06T19:33:54.589Z,26.00
2023-03-06T19:36:27.044Z,38.37
2023-03-06T19:38:55.620Z,35.73
2023-03-06T19:41:23.034Z,25.57
2023-03-06T19:43:54.820Z,30.00
2023-03-06T19:46:22.642Z,22.37
2023-03-06T19:48:59.306Z,24.53
2023-03-06T19:51:27.071Z,26.43
2023-03-06T19:53:54.557Z,73.13
2023-03-06T19:56:26.419Z,58.17
2023-03-06T19:58:54.091Z,49.80
2023-03-06T20:01:22.576Z,27.63
2023-03-06T20:03:50.994Z,24.00
2023-03-06T20:06:19.707Z,25.60
2023-03-06T20:08:47.109Z,24.37
2023-03-06T20:11:25.569Z,29.77
2023-03-06T20:14:03.564Z,24.33
2023-03-06T20:16:31.038Z,31.30
2023-03-06T20:18:59.129Z,25.30
2023-03-06T20:21:30.037Z,31.23
2023-03-06T20:23:58.612Z,27.30
2023-03-06T20:26:26.616Z,39.77
2023-03-06T20:28:55.020Z,33.90
2023-03-06T20:31:25.252Z,25.33
2023-03-06T20:33:53.230Z,27.83
2023-03-06T20:36:22.286Z,37.33
2023-03-06T20:38:49.685Z,37.73
2023-03-06T20:41:21.855Z,34.50
2023-03-06T20:43:49.270Z,45.07
2023-03-06T20:46:16.938Z,33.27
2023-03-06T20:48:45.107Z,24.90
2023-03-06T20:51:23.214Z,28.33
2023-03-06T20:53:51.881Z,34.40
2023-03-06T20:56:20.407Z,31.90
2023-03-06T20:58:49.254Z,29.70
2023-03-06T21:01:27.081Z,28.93
2023-03-06T21:03:54.645Z,24.37
2023-03-06T21:06:21.960Z,26.10
2023-03-06T21:08:49.533Z,20.27
2023-03-06T21:11:17.430Z,25.70
2023-03-06T21:13:44.823Z,23.77
2023-03-06T21:16:14.088Z,25.87
2023-03-06T21:18:41.866Z,53.70
2023-03-06T21:21:13.686Z,40.93
2023-03-06T21:23:41.224Z,46.47
2023-03-06T21:26:11.744Z,38.27
2023-03-06T21:28:40.084Z,30.30
2023-03-06T21:31:08.451Z,32.73
2023-03-06T21:33:35.875Z,33.30
2023-03-06T21:36:03.639Z,42.70
2023-03-06T21:38:31.034Z,38.00
2023-03-06T21:41:16.376Z,32.27
2023-03-06T21:43:43.752Z,26.03
2023-03-06T21:46:11.556Z,31.10
2023-03-06T21:48:39.019Z,39.83
2023-03-06T21:51:07.197Z,65.73
2023-03-06T21:53:34.915Z,54.03
2023-03-06T21:56:02.844Z,34.87
2023-03-06T21:58:30.470Z,28.07
2023-03-06T22:00:57.891Z,26.07
2023-03-06T22:03:25.141Z,36.07
2023-03-06T22:05:52.883Z,38.10
2023-03-06T22:08:25.485Z,31.03
2023-03-06T22:10:52.958Z,23.70
2023-03-06T22:13:21.018Z,30.03
2023-03-06T22:15:52.465Z,24.83
2023-03-06T22:18:19.832Z,23.97
2023-03-06T22:20:47.684Z,22.40
2023-03-06T22:23:15.312Z,22.70
2023-03-06T22:25:42.714Z,28.53
2023-03-06T22:28:09.885Z,24.20
2023-03-06T22:30:37.541Z,20.97
2023-03-06T22:33:05.058Z,24.43
2023-03-06T22:35:32.332Z,20.60
2023-03-06T22:38:02.861Z,21.43
2023-03-06T22:40:30.286Z,21.33
2023-03-06T22:42:57.570Z,22.27
2023-03-06T22:45:24.791Z,26.33
2023-03-06T22:47:57.140Z,26.67
2023-03-06T22:50:29.858Z,23.67
2023-03-06T22:52:57.265Z,20.63
2023-03-06T22:55:24.619Z,26.40
2023-03-06T22:57:51.919Z,32.73
2023-03-06T23:00:19.688Z,34.80
2023-03-06T23:02:47.452Z,25.80
2023-03-06T23:05:16.186Z,28.90
2023-03-06T23:07:43.589Z,29.03
2023-03-06T23:10:11.736Z,30.20
2023-03-06T23:12:41.999Z,32.87
2023-03-06T23:15:09.510Z,34.53
2023-03-06T23:17:36.755Z,35.60
2023-03-06T23:20:10.373Z,35.07
2023-03-06T23:22:37.674Z,27.80
2023-03-06T23:25:06.314Z,32.10
2023-03-06T23:27:35.391Z,31.77
2023-03-06T23:30:04.221Z,22.67
2023-03-06T23:32:34.844Z,86.60
2023-03-06T23:35:02.109Z,56.37
2023-03-06T23:37:29.613Z,72.37
2023-03-06T23:39:57.110Z,73.57
2023-03-06T23:42:24.604Z,39.60
2023-03-06T23:44:52.020Z,70.63
2023-03-06T23:47:20.381Z,59.63
2023-03-06T23:49:47.706Z,55.17
2023-03-06T23:52:15.098Z,94.57
2023-03-06T23:54:42.378Z,48.37
2023-03-06T23:57:09.952Z,35.10
2023-03-06T23:59:37.423Z,28.00
